Time;durP1;ratioP1;P1;durP2;ratioP2;P2;SDS_P1;SDS_P2;PMS_P1;PMS_P2;Temp;Humidity;BMP_temperature;BMP_pressure;BME280_temperature;BME280_humidity;BME280_pressure;Samples;Min_cycle;Max_cycle;Signal;HPM_P1;HPM_P2
2022/03/20 00:01:54;;;;;;;10.47;7.97;;;;;;;-0.65;74.89;101828.16;5059364;28;20196;-63
2022/03/20 00:04:21;;;;;;;8.27;7.47;;;;;;;-0.74;74.92;101819.22;5068553;28;20259;-64
2022/03/20 00:06:48;;;;;;;7.37;6.77;;;;;;;-0.68;74.85;101835.53;5061532;28;20205;-63
2022/03/20 00:09:15;;;;;;;8.43;7.53;;;;;;;-0.67;74.63;101831.38;5066153;28;20208;-64
2022/03/20 00:11:42;;;;;;;7.77;7.00;;;;;;;-0.67;74.55;101826.31;5060989;28;20676;-64
2022/03/20 00:14:09;;;;;;;8.27;7.13;;;;;;;-0.67;74.56;101821.28;5068817;28;20189;-63
2022/03/20 00:16:36;;;;;;;8.33;7.63;;;;;;;-0.64;74.46;101821.44;5065392;28;20583;-64
2022/03/20 00:19:05;;;;;;;7.87;7.23;;;;;;;-0.78;74.44;101787.13;5061587;28;20665;-64
2022/03/20 00:21:33;;;;;;;7.70;7.07;;;;;;;-0.68;74.63;101814.53;5065360;28;20200;-64
2022/03/20 00:24:00;;;;;;;7.97;7.27;;;;;;;-0.69;74.64;101813.66;5057222;28;20254;-64
2022/03/20 00:26:27;;;;;;;9.03;8.13;;;;;;;-0.69;74.47;101812.78;5063033;28;20212;-64
2022/03/20 00:28:54;;;;;;;7.73;7.10;;;;;;;-0.70;74.41;101811.03;5069609;28;20286;-64
2022/03/20 00:31:21;;;;;;;8.00;7.20;;;;;;;-0.72;74.22;101798.41;5065203;28;20665;-63
2022/03/20 00:33:48;;;;;;;8.90;7.97;;;;;;;-0.70;73.93;101795.94;5064459;28;20220;-63
2022/03/20 00:36:16;;;;;;;9.07;8.13;;;;;;;-0.71;73.64;101799.25;5057808;28;20291;-64
2022/03/20 00:38:43;;;;;;;7.90;7.30;;;;;;;-0.76;73.56;101798.13;5063601;28;20287;-63
2022/03/20 00:41:10;;;;;;;7.47;6.80;;;;;;;-0.88;73.89;101793.31;5058426;28;20236;-63
2022/03/20 00:43:38;;;;;;;9.77;6.97;;;;;;;-0.97;74.28;101800.38;5055808;28;20300;-63
2022/03/20 00:46:05;;;;;;;8.00;7.37;;;;;;;-0.99;74.64;101806.09;5063175;28;20583;-63
2022/03/20 00:48:32;;;;;;;6.90;6.40;;;;;;;-0.98;74.83;101798.63;5063192;28;20196;-64
2022/03/20 00:51:06;;;;;;;7.20;6.63;;;;;;;-1.03;75.35;101797.50;5065551;28;20291;-63
2022/03/20 00:53:34;;;;;;;6.67;6.17;;;;;;;-1.08;75.29;101792.25;5057443;28;20243;-63
2022/03/20 00:56:01;;;;;;;9.17;7.80;;;;;;;-1.18;75.32;101779.94;5060131;28;20218;-63
2022/03/20 00:58:28;;;;;;;6.97;6.43;;;;;;;-1.17;75.47;101783.31;5056401;28;20197;-63
2022/03/20 01:00:54;;;;;;;7.30;6.60;;;;;;;-1.23;75.98;101791.38;5054972;28;20201;-64
2022/03/20 01:03:21;;;;;;;7.40;6.87;;;;;;;-1.38;76.94;101780.47;5058718;28;20203;-63
2022/03/20 01:05:48;;;;;;;7.67;7.10;;;;;;;-1.45;77.94;101778.41;5056449;28;20188;-64
2022/03/20 01:08:15;;;;;;;8.77;7.53;;;;;;;-1.40;78.07;101782.06;5056548;28;20658;-63
2022/03/20 01:10:44;;;;;;;7.30;6.80;;;;;;;-1.34;78.07;101789.06;5060527;28;20629;-64
2022/03/20 01:13:11;;;;;;;7.67;7.03;;;;;;;-1.40;78.20;101787.09;5055334;28;20197;-63
2022/03/20 01:15:37;;;;;;;8.57;7.30;;;;;;;-1.42;78.62;101783.59;5063263;28;20211;-63
2022/03/20 01:18:04;;;;;;;7.60;7.00;;;;;;;-1.46;78.84;101785.88;5063906;28;20286;-63
2022/03/20 01:20:31;;;;;;;7.30;6.70;;;;;;;-1.48;79.04;101787.41;5056837;28;20299;-63
2022/03/20 01:22:58;;;;;;;8.13;7.40;;;;;;;-1.49;78.94;101781.53;5059466;28;20664;-64
2022/03/20 01:25:25;;;;;;;9.03;7.53;;;;;;;-1.59;79.42;101774.25;5065398;28;20219;-64
2022/03/20 01:27:54;;;;;;;14.53;8.07;;;;;;;-1.58;79.83;101786.03;5065737;28;20588;-64
2022/03/20 01:30:21;;;;;;;7.67;7.17;;;;;;;-1.65;80.18;101773.91;5061555;28;20254;-64
2022/03/20 01:32:48;;;;;;;7.50;6.90;;;;;;;-1.58;80.43;101786.03;5066393;28;20236;-64
2022/03/20 01:35:15;;;;;;;8.57;7.40;;;;;;;-1.57;80.47;101782.75;5059831;28;20201;-64
2022/03/20 01:37:42;;;;;;;7.77;7.17;;;;;;;-1.53;80.48;101778.75;5063334;28;20204;-64
2022/03/20 01:40:09;;;;;;;8.00;7.23;;;;;;;-1.55;80.49;101780.34;5061676;28;20193;-64
2022/03/20 01:42:38;;;;;;;8.03;7.40;;;;;;;-1.56;80.59;101779.47;5067065;28;20214;-64
2022/03/20 01:45:17;;;;;;;7.87;7.07;;;;;;;-1.55;80.60;101780.34;5063612;28;20224;-64
2022/03/20 01:47:47;;;;;;;9.23;8.17;;;;;;;-1.58;80.57;101779.34;5061541;28;20635;-64
2022/03/20 01:50:14;;;;;;;7.20;6.70;;;;;;;-1.60;80.69;101787.59;5064130;28;20603;-64
2022/03/20 01:52:41;;;;;;;9.33;8.07;;;;;;;-1.67;81.24;101780.50;5062395;28;20287;-64
2022/03/20 01:55:08;;;;;;;11.30;8.57;;;;;;;-1.70;81.25;101782.84;5061144;28;20278;-64
2022/03/20 01:57:39;;;;;;;10.93;9.33;;;;;;;-1.82;80.64;101769.56;5054466;28;20708;-64
2022/03/20 02:00:08;;;;;;;13.20;7.97;;;;;;;-1.88;80.98;101764.19;5044868;28;20208;-64
2022/03/20 02:02:37;;;;;;;10.03;8.97;;;;;;;-1.83;80.74;101776.25;5041100;28;20197;-64
2022/03/20 02:05:05;;;;;;;10.87;7.97;;;;;;;-1.91;80.51;101779.97;5044929;28;20213;-64
2022/03/20 02:07:34;;;;;;;8.27;7.50;;;;;;;-2.01;80.77;101784.38;5037289;28;20207;-64
2022/03/20 02:10:01;;;;;;;10.73;8.37;;;;;;;-2.29;81.30;101759.25;5037830;28;20281;-64
2022/03/20 02:12:28;;;;;;;8.70;7.57;;;;;;;-2.26;82.28;101780.41;5036516;28;20581;-64
2022/03/20 02:14:56;;;;;;;11.33;9.20;;;;;;;-2.32;82.89;101775.03;5033334;28;20189;-64
2022/03/20 02:17:23;;;;;;;10.23;8.77;;;;;;;-2.35;83.12;101772.34;5039855;28;20283;-64
2022/03/20 02:19:52;;;;;;;10.47;9.37;;;;;;;-2.40;83.12;101776.25;5040255;28;20201;-64
2022/03/20 02:22:20;;;;;;;22.43;8.87;;;;;;;-2.43;83.13;101768.53;5046773;28;20295;-64
2022/03/20 02:24:49;;;;;;;11.00;9.00;;;;;;;-2.46;83.40;101770.84;5044615;28;20212;-64
2022/03/20 02:27:18;;;;;;;9.57;8.50;;;;;;;-2.48;83.57;101772.38;5043051;28;20205;-64
2022/03/20 02:29:47;;;;;;;11.33;9.97;;;;;;;-2.49;83.60;101775.69;5045313;28;20198;-64
2022/03/20 02:32:16;;;;;;;13.70;9.73;;;;;;;-2.50;83.44;101771.44;5049087;28;20670;-64
2022/03/20 02:34:47;;;;;;;11.63;9.80;;;;;;;-2.52;83.52;101770.47;5043708;28;20704;-64
2022/03/20 02:37:15;;;;;;;10.33;9.30;;;;;;;-2.59;83.46;101763.34;5052118;28;20208;-64
2022/03/20 02:39:44;;;;;;;12.80;9.50;;;;;;;-2.58;84.08;101772.59;5043977;28;20251;-64
2022/03/20 02:42:11;;;;;;;10.93;9.10;;;;;;;-2.66;84.66;101771.28;5044095;28;20206;-64
2022/03/20 02:44:58;;;;;;;14.53;9.70;;;;;;;-2.68;85.16;101772.81;5042144;28;20220;-64
2022/03/20 02:47:29;;;;;;;18.47;9.57;;;;;;;-2.72;85.48;101770.94;5047246;28;20193;-64
2022/03/20 02:49:58;;;;;;;10.83;9.00;;;;;;;-2.76;86.04;101772.38;5042996;28;20205;-64
2022/03/20 02:52:28;;;;;;;10.13;8.23;;;;;;;-2.78;86.24;101780.59;5047287;28;20292;-64
2022/03/20 02:55:00;;;;;;;13.50;9.17;;;;;;;-2.79;86.64;101773.84;5046065;28;20280;-64
2022/03/20 02:57:27;;;;;;;9.10;8.20;;;;;;;-2.84;87.66;101775.19;5041226;28;20232;-64
2022/03/20 02:59:54;;;;;;;10.27;9.23;;;;;;;-2.89;87.75;101772.41;5046547;28;20224;-64
2022/03/20 03:02:21;;;;;;;10.50;8.80;;;;;;;-2.95;87.96;101762.00;5041014;28;20236;-64
2022/03/20 03:04:48;;;;;;;11.93;8.80;;;;;;;-2.86;87.92;101771.72;5046821;28;20599;-64
2022/03/20 03:07:14;;;;;;;9.37;8.47;;;;;;;-2.82;87.75;101767.00;5045307;28;20323;-65
2022/03/20 03:12:27;;;;;;;9.93;8.27;;;;;;;-2.84;87.26;101763.50;5049256;28;20731;-65
2022/03/20 03:17:38;;;;;;;13.20;8.13;;;;;;;-2.74;86.63;101773.31;5039873;28;20713;-64
2022/03/20 03:20:06;;;;;;;11.83;10.30;;;;;;;-2.74;87.05;101772.47;5042104;28;20283;-64
2022/03/20 03:22:33;;;;;;;15.73;10.13;;;;;;;-2.76;86.96;101771.50;5043694;28;20254;-64
2022/03/20 03:24:59;;;;;;;18.97;10.87;;;;;;;-2.81;87.64;101775.41;5043382;28;20609;-64
2022/03/20 03:27:28;;;;;;;13.23;9.93;;;;;;;-2.87;88.40;101775.00;5047300;28;20208;-64
2022/03/20 03:29:58;;;;;;;15.63;10.73;;;;;;;-2.93;88.63;101779.63;5046216;28;20315;-65
2022/03/20 03:32:25;;;;;;;15.00;10.40;;;;;;;-3.03;89.09;101770.66;5042077;28;20196;-64
2022/03/20 03:37:36;;;;;;;14.60;11.10;;;;;;;-2.98;89.54;101781.00;5042886;28;20626;-64
2022/03/20 03:40:07;;;;;;;20.30;11.93;;;;;;;-3.05;90.61;101787.28;5044482;28;20197;-64
2022/03/20 03:42:36;;;;;;;18.27;12.23;;;;;;;-3.14;90.62;101768.28;5043431;28;20208;-64
2022/03/20 03:45:03;;;;;;;16.20;11.90;;;;;;;-3.01;90.69;101776.69;5042863;28;20220;-64
2022/03/20 03:47:30;;;;;;;18.33;11.10;;;;;;;-3.02;91.30;101774.06;5042444;28;20197;-64
2022/03/20 03:49:57;;;;;;;15.63;12.23;;;;;;;-3.01;91.37;101775.81;5044537;28;20205;-64
2022/03/20 03:52:24;;;;;;;16.57;12.80;;;;;;;-3.10;92.31;101785.28;5045478;28;20220;-64
2022/03/20 03:54:51;;;;;;;22.80;13.67;;;;;;;-3.23;93.26;101781.97;5038715;28;20276;-64
2022/03/20 03:57:20;;;;;;;22.97;13.93;;;;;;;-3.20;93.19;101779.66;5041008;28;20311;-64
2022/03/20 03:59:48;;;;;;;23.47;15.47;;;;;;;-3.31;94.12;101769.75;5042526;28;20222;-64
2022/03/20 04:02:16;;;;;;;23.03;13.03;;;;;;;-3.34;94.80;101765.41;5045499;28;20236;-64
2022/03/20 04:04:42;;;;;;;20.57;15.03;;;;;;;-3.29;95.35;101781.59;5045683;28;20220;-64
2022/03/20 04:07:10;;;;;;;32.90;15.97;;;;;;;-3.27;95.67;101777.56;5043423;28;20201;-64
2022/03/20 04:09:37;;;;;;;18.37;13.23;;;;;;;-3.26;95.64;101773.38;5047379;28;20203;-64
2022/03/20 04:12:05;;;;;;;22.70;13.93;;;;;;;-3.33;95.65;101774.63;5044394;28;20725;-64
2022/03/20 04:14:32;;;;;;;20.37;13.33;;;;;;;-3.24;95.32;101781.91;5037468;28;20192;-64
2022/03/20 04:17:01;;;;;;;19.07;13.73;;;;;;;-3.23;95.16;101779.47;5039055;28;20198;-65
2022/03/20 04:19:28;;;;;;;18.80;12.63;;;;;;;-3.19;94.83;101776.38;5041841;28;20292;-64
2022/03/20 04:21:55;;;;;;;20.73;13.20;;;;;;;-3.23;94.79;101784.47;5046960;28;20292;-64
2022/03/20 04:24:22;;;;;;;15.60;12.40;;;;;;;-3.14;94.37;101788.34;5039520;28;20209;-64
2022/03/20 04:26:49;;;;;;;15.50;12.00;;;;;;;-3.09;93.52;101789.50;5040587;28;20288;-64
2022/03/20 04:29:16;;;;;;;16.47;12.10;;;;;;;-3.07;93.00;101786.34;5046003;28;20205;-64
2022/03/20 04:31:43;;;;;;;18.03;12.80;;;;;;;-3.08;92.52;101778.69;5039727;28;20297;-64
2022/03/20 04:34:12;;;;;;;16.70;12.17;;;;;;;-3.03;92.23;101783.22;5038495;28;20289;-64
2022/03/20 04:36:39;;;;;;;20.93;13.03;;;;;;;-3.04;91.56;101776.50;5044910;28;20200;-64
2022/03/20 04:39:06;;;;;;;18.07;12.37;;;;;;;-3.01;91.36;101785.84;5041003;28;20198;-64
2022/03/20 04:41:33;;;;;;;18.97;11.93;;;;;;;-3.00;91.55;101785.03;5045299;28;20744;-64
2022/03/20 04:44:01;;;;;;;19.37;12.53;;;;;;;-2.98;91.50;101791.03;5042151;28;20284;-64
2022/03/20 04:46:28;;;;;;;20.23;12.87;;;;;;;-3.02;91.56;101800.03;5043217;28;20213;-64
2022/03/20 04:59:54;;;;;;;20.80;13.43;;;;;;;-2.88;91.16;101775.78;5065661;28;20248;-64
2022/03/20 05:02:21;;;;;;;20.67;13.97;;;;;;;-2.83;90.77;101781.94;5057044;28;20208;-64
2022/03/20 05:04:49;;;;;;;39.30;20.83;;;;;;;-2.78;90.69;101780.59;5066208;28;20281;-65
2022/03/20 05:07:18;;;;;;;24.97;16.97;;;;;;;-2.79;90.73;101782.22;5062609;28;20656;-64
2022/03/20 05:15:14;;;;;;;19.00;12.20;;;;;;;-2.56;90.63;101801.22;5068558;28;20325;-64
2022/03/20 05:17:41;;;;;;;22.30;12.87;;;;;;;-2.49;90.51;101790.75;5059381;28;20208;-64
2022/03/20 05:20:10;;;;;;;15.23;11.87;;;;;;;-2.32;90.53;101795.13;5062143;28;20679;-65
2022/03/20 05:22:40;;;;;;;14.57;12.17;;;;;;;-2.17;89.52;101795.19;5059466;28;20588;-65
2022/03/20 05:25:09;;;;;;;14.67;12.10;;;;;;;-1.99;88.56;101805.44;5064354;28;20231;-64
2022/03/20 05:27:37;;;;;;;12.13;10.90;;;;;;;-1.88;87.36;101799.38;5064531;28;20195;-64
2022/03/20 05:30:07;;;;;;;18.33;12.80;;;;;;;-1.76;87.22;101795.06;5059662;28;20721;-65
2022/03/20 05:32:35;;;;;;;19.77;13.87;;;;;;;-1.72;87.33;101789.44;5066054;28;20260;-65
2022/03/20 05:35:04;;;;;;;12.63;10.23;;;;;;;-1.48;86.44;101800.88;5061166;28;20196;-64
2022/03/20 05:37:31;;;;;;;17.33;12.17;;;;;;;-1.39;86.32;101803.88;5059876;28;20680;-65
2022/03/20 05:39:59;;;;;;;13.83;10.67;;;;;;;-1.24;85.62;101804.75;5062643;28;20287;-64
2022/03/20 05:42:26;;;;;;;14.77;12.50;;;;;;;-1.06;85.60;101809.94;5066720;28;20211;-64
2022/03/20 05:44:53;;;;;;;16.80;10.60;;;;;;;-0.89;85.73;101803.28;5066031;28;20311;-64
2022/03/20 05:47:20;;;;;;;12.63;11.03;;;;;;;-0.71;85.30;101805.13;5064557;28;20295;-64
2022/03/20 05:49:47;;;;;;;11.57;10.23;;;;;;;-0.55;85.89;101816.94;5056157;28;20287;-64
2022/03/20 05:52:15;;;;;;;11.47;10.27;;;;;;;-0.35;84.78;101808.72;5063510;28;20670;-64
2022/03/20 05:54:42;;;;;;;11.10;9.93;;;;;;;-0.14;83.75;101817.41;5063244;28;20665;-64
2022/03/20 05:59:55;;;;;;;11.17;10.00;;;;;;;0.25;79.63;101826.13;5048344;28;20331;-65
2022/03/20 06:02:23;;;;;;;16.27;10.67;;;;;;;0.39;78.72;101822.63;5049115;28;20680;-65
2022/03/20 06:04:51;;;;;;;15.97;11.87;;;;;;;0.61;78.68;101819.50;5046182;28;20368;-65
2022/03/20 06:07:18;;;;;;;14.83;10.27;;;;;;;0.83;77.39;101826.44;5045890;28;20201;-65
2022/03/20 06:09:45;;;;;;;12.60;8.53;;;;;;;0.91;74.83;101831.03;5048563;28;20296;-65
2022/03/20 06:12:13;;;;;;;9.73;8.83;;;;;;;1.07;74.84;101826.75;5045856;28;20673;-65
2022/03/20 06:14:40;;;;;;;9.30;7.40;;;;;;;1.17;72.00;101818.75;5046001;28;20212;-66
2022/03/20 06:17:09;;;;;;;10.13;9.00;;;;;;;1.29;71.74;101824.41;5047271;28;20288;-66
2022/03/20 06:19:36;;;;;;;9.90;8.83;;;;;;;1.38;71.04;101824.81;5047869;28;20236;-66
2022/03/20 06:22:04;;;;;;;7.57;6.90;;;;;;;1.48;71.59;101816.84;5049803;28;20559;-66
2022/03/20 06:24:32;;;;;;;9.60;8.70;;;;;;;1.58;72.14;101829.13;5045359;28;20279;-66
2022/03/20 06:26:58;;;;;;;8.57;7.87;;;;;;;1.69;70.61;101822.84;5045910;28;20221;-66
2022/03/20 06:29:27;;;;;;;7.37;6.77;;;;;;;1.92;68.28;101826.38;5044574;28;21661;-66
2022/03/20 06:31:54;;;;;;;9.07;6.73;;;;;;;2.10;67.19;101833.09;5043765;28;20212;-66
2022/03/20 06:34:21;;;;;;;7.30;6.60;;;;;;;2.18;67.32;101824.97;5041998;28;20208;-66
2022/03/20 06:36:48;;;;;;;7.27;6.57;;;;;;;2.22;65.54;101822.66;5046542;28;20197;-66
2022/03/20 06:39:15;;;;;;;7.27;6.67;;;;;;;2.44;66.42;101834.53;5048353;28;20209;-66
2022/03/20 06:41:42;;;;;;;7.53;6.93;;;;;;;2.53;64.31;101834.88;5045812;28;20236;-67
2022/03/20 06:44:09;;;;;;;8.90;8.00;;;;;;;2.58;63.46;101833.44;5046757;28;20299;-67
2022/03/20 06:46:39;;;;;;;8.70;6.20;;;;;;;2.60;64.87;101831.81;5046209;28;20279;-66
2022/03/20 06:49:08;;;;;;;7.47;6.87;;;;;;;2.74;62.86;101830.72;5046006;28;20201;-66
2022/03/20 06:51:35;;;;;;;7.47;6.97;;;;;;;2.73;63.19;101812.91;5045400;28;20611;-67
2022/03/20 06:54:02;;;;;;;7.37;5.70;;;;;;;2.88;60.72;101832.09;5045848;28;20287;-66
2022/03/20 06:56:29;;;;;;;9.97;5.93;;;;;;;2.90;60.46;101810.25;5041364;28;20270;-66
2022/03/20 06:58:57;;;;;;;5.67;5.27;;;;;;;2.89;60.23;101797.50;5042847;28;20197;-66
2022/03/20 07:01:24;;;;;;;7.00;6.40;;;;;;;3.25;61.03;101821.75;5047136;28;20252;-67
2022/03/20 07:03:53;;;;;;;11.00;6.73;;;;;;;3.42;58.69;101822.38;5042906;28;20201;-66
2022/03/20 07:06:26;;;;;;;11.73;8.27;;;;;;;3.59;59.16;101819.63;5044157;28;20707;-67
2022/03/20 07:08:55;;;;;;;5.97;5.50;;;;;;;3.74;56.94;101824.41;5046184;28;20592;-65
2022/03/20 07:11:22;;;;;;;6.07;5.57;;;;;;;3.77;55.00;101824.53;5046202;28;20647;-64
2022/03/20 07:13:53;;;;;;;5.10;4.77;;;;;;;3.93;53.97;101824.25;5053508;28;20637;-65
2022/03/20 07:16:28;;;;;;;4.63;4.23;;;;;;;3.99;52.68;101827.00;5043314;28;20727;-66
2022/03/20 07:18:58;;;;;;;4.67;4.40;;;;;;;4.09;51.92;101828.19;5037785;28;20674;-66
2022/03/20 07:21:25;;;;;;;5.17;4.53;;;;;;;4.18;52.28;101823.44;5045420;28;20201;-66
2022/03/20 07:23:54;;;;;;;10.63;8.77;;;;;;;4.38;50.86;101819.91;5045480;28;20288;-66
2022/03/20 07:31:50;;;;;;;4.67;4.37;;;;;;;5.06;49.84;101808.53;5043190;28;20279;-66
2022/03/20 07:34:18;;;;;;;5.43;5.03;;;;;;;5.20;50.22;101809.81;5037824;28;20225;-66
2022/03/20 07:36:45;;;;;;;5.90;5.47;;;;;;;5.35;48.81;101809.38;5041381;28;20236;-66
2022/03/20 07:39:12;;;;;;;5.97;5.47;;;;;;;5.55;48.20;101810.84;5040250;28;20656;-66
2022/03/20 07:41:40;;;;;;;5.17;4.83;;;;;;;5.73;48.60;101811.34;5039516;28;20280;-66
2022/03/20 07:44:07;;;;;;;5.23;4.77;;;;;;;5.79;46.98;101799.66;5038527;28;20603;-66
2022/03/20 07:46:38;;;;;;;7.70;5.63;;;;;;;6.03;47.47;101808.81;5045251;28;20245;-67
2022/03/20 07:49:05;;;;;;;9.37;5.47;;;;;;;6.16;47.11;101811.72;5050774;28;20200;-66
2022/03/20 07:51:34;;;;;;;5.37;5.03;;;;;;;6.30;47.13;101815.47;5047931;28;20196;-66
2022/03/20 07:54:01;;;;;;;7.17;6.37;;;;;;;6.29;46.83;101795.06;5048480;28;20201;-66
2022/03/20 07:56:34;;;;;;;8.13;6.30;;;;;;;6.65;48.30;101802.75;5043526;28;20228;-66
2022/03/20 07:59:01;;;;;;;11.40;10.57;;;;;;;6.77;47.08;101801.38;5044155;28;20208;-67
2022/03/20 08:01:29;;;;;;;5.40;5.10;;;;;;;6.90;45.03;101810.16;5048134;28;20659;-67
2022/03/20 08:03:56;;;;;;;6.63;6.13;;;;;;;6.92;44.95;101799.97;5046564;28;20200;-67
2022/03/20 08:06:25;;;;;;;4.60;4.30;;;;;;;7.08;44.08;101799.50;5042451;28;20224;-67
2022/03/20 08:08:54;;;;;;;5.73;5.33;;;;;;;7.23;43.86;101789.66;5046309;28;20248;-67
2022/03/20 08:11:20;;;;;;;6.43;4.80;;;;;;;7.33;46.30;101792.41;5046325;28;20278;-68
2022/03/20 08:13:47;;;;;;;5.30;5.07;;;;;;;7.54;44.51;101786.03;5042309;28;20212;-67
2022/03/20 08:16:15;;;;;;;3.77;3.57;;;;;;;7.65;42.73;101789.66;5043033;28;20217;-67
2022/03/20 08:18:44;;;;;;;4.40;4.10;;;;;;;7.73;41.29;101790.66;5048384;28;20624;-67
2022/03/20 08:21:11;;;;;;;4.60;4.30;;;;;;;7.77;40.29;101784.78;5042749;28;20255;-67
2022/03/20 08:23:39;;;;;;;5.53;4.27;;;;;;;7.94;39.56;101773.22;5041814;28;20223;-68
2022/03/20 08:26:08;;;;;;;4.97;4.57;;;;;;;8.04;42.19;101758.91;5046408;28;20646;-67
2022/03/20 08:28:37;;;;;;;5.03;4.43;;;;;;;8.14;40.60;101781.25;5042122;28;20236;-67
2022/03/20 08:31:06;;;;;;;4.93;4.57;;;;;;;8.23;40.89;101771.16;5038991;28;20571;-67
2022/03/20 08:33:35;;;;;;;4.37;3.77;;;;;;;8.35;38.11;101764.59;5044825;28;20236;-67
2022/03/20 08:36:04;;;;;;;4.07;3.80;;;;;;;8.40;40.01;101768.09;5042470;28;20192;-67
2022/03/20 08:38:33;;;;;;;4.20;3.90;;;;;;;8.42;37.46;101769.00;5043631;28;20573;-67
2022/03/20 08:41:00;;;;;;;4.37;3.70;;;;;;;8.42;38.86;101756.22;5040041;28;20281;-68
2022/03/20 08:43:29;;;;;;;4.13;3.93;;;;;;;8.52;39.11;101758.91;5042321;28;20204;-66
2022/03/20 08:45:57;;;;;;;4.70;4.40;;;;;;;8.71;39.25;101755.78;5041374;28;20632;-65
2022/03/20 08:48:24;;;;;;;5.83;4.07;;;;;;;8.75;38.29;101747.34;5043286;28;20291;-67
2022/03/20 08:50:50;;;;;;;9.77;4.80;;;;;;;8.94;38.71;101749.31;5043546;28;20212;-68
2022/03/20 08:53:20;;;;;;;17.23;5.10;;;;;;;8.88;38.76;101739.88;5044480;28;20201;-67
2022/03/20 08:55:50;;;;;;;8.93;4.40;;;;;;;8.83;37.18;101730.38;5042550;28;20576;-66
2022/03/20 08:58:17;;;;;;;7.37;5.40;;;;;;;8.74;37.97;101720.03;5041631;28;20696;-69
2022/03/20 09:00:47;;;;;;;15.50;5.43;;;;;;;9.02;35.94;101742.59;5023241;28;20277;-67
2022/03/20 09:03:14;;;;;;;7.70;4.77;;;;;;;9.16;37.08;101738.53;5041481;28;20673;-66
2022/03/20 09:05:42;;;;;;;3.43;3.23;;;;;;;9.35;35.55;101731.94;5040911;28;20220;-67
2022/03/20 09:08:09;;;;;;;6.03;4.07;;;;;;;9.41;34.97;101729.44;5044087;28;20292;-66
2022/03/20 09:10:36;;;;;;;5.23;4.07;;;;;;;9.46;33.09;101728.66;5044925;28;20233;-67
2022/03/20 09:13:03;;;;;;;3.50;3.20;;;;;;;9.66;35.75;101722.91;5042796;28;20254;-67
2022/03/20 09:15:31;;;;;;;3.30;3.10;;;;;;;9.75;36.92;101723.00;5042875;28;20233;-66
2022/03/20 09:20:45;;;;;;;4.07;3.63;;;;;;;9.43;35.03;101704.72;5041273;28;20760;-65
2022/03/20 09:23:13;;;;;;;3.53;3.33;;;;;;;9.63;33.25;101718.59;5040957;28;20208;-65
2022/03/20 09:25:40;;;;;;;3.70;3.40;;;;;;;9.62;33.34;101716.03;5043756;28;20748;-63
2022/03/20 09:28:09;;;;;;;3.90;3.30;;;;;;;9.70;35.10;101714.38;5046771;28;20219;-63
2022/03/20 09:30:38;;;;;;;3.47;3.27;;;;;;;9.78;33.40;101715.34;5045702;28;20212;-63
2022/03/20 09:33:07;;;;;;;4.07;3.73;;;;;;;9.65;33.32;101709.22;5043590;28;20263;-63
2022/03/20 09:35:36;;;;;;;4.77;4.10;;;;;;;9.66;34.38;101699.84;5045978;28;20200;-63
2022/03/20 09:38:04;;;;;;;3.90;3.60;;;;;;;9.85;34.00;101709.44;5039608;28;20212;-63
2022/03/20 09:40:31;;;;;;;4.10;3.80;;;;;;;9.66;31.56;101712.66;5043903;28;20204;-64
2022/03/20 09:42:58;;;;;;;5.53;5.10;;;;;;;9.46;31.76;101715.88;5044141;28;20224;-63
2022/03/20 09:45:25;;;;;;;4.03;3.77;;;;;;;9.54;31.14;101707.38;5044871;28;20209;-63
2022/03/20 09:47:54;;;;;;;6.73;3.30;;;;;;;9.50;31.81;101699.66;5038198;28;20715;-63
2022/03/20 09:50:24;;;;;;;3.27;3.07;;;;;;;9.73;31.24;101699.03;5040261;28;20236;-63
2022/03/20 09:52:50;;;;;;;53.67;18.10;;;;;;;9.58;32.91;101688.66;5043093;28;20200;-63
2022/03/20 09:55:17;;;;;;;20.27;10.53;;;;;;;9.74;33.27;101690.53;5038859;28;20215;-63
2022/03/20 09:57:44;;;;;;;3.77;3.57;;;;;;;9.79;32.55;101689.72;5039291;28;20228;-63
2022/03/20 10:00:15;;;;;;;3.30;3.10;;;;;;;9.99;35.53;101688.19;5045463;28;20192;-70
2022/03/20 10:02:42;;;;;;;3.60;3.30;;;;;;;9.99;31.74;101672.81;5044775;28;20644;-70
2022/03/20 10:05:10;;;;;;;3.43;3.13;;;;;;;10.19;33.62;101678.16;5041971;28;20212;-69
2022/03/20 10:07:40;;;;;;;4.63;3.20;;;;;;;10.15;35.89;101653.34;5045664;28;20672;-70
2022/03/20 10:10:15;;;;;;;3.07;2.87;;;;;;;10.24;32.46;101663.66;5041594;28;20208;-70
2022/03/20 10:12:44;;;;;;;3.40;3.10;;;;;;;10.23;33.96;101661.94;5045655;28;20204;-70
2022/03/20 10:15:30;;;;;;;9.13;3.37;;;;;;;10.21;33.94;101668.75;5042202;28;20636;-70
2022/03/20 10:18:14;;;;;;;4.50;4.10;;;;;;;10.19;33.27;101649.94;5042518;28;20189;-70
2022/03/20 10:20:44;;;;;;;2.90;2.73;;;;;;;10.40;36.66;101655.22;5043042;28;20223;-71
2022/03/20 10:23:32;;;;;;;3.20;3.00;;;;;;;10.32;33.04;101651.75;5040354;28;20932;-70
2022/03/20 10:26:00;;;;;;;3.00;2.80;;;;;;;10.45;33.88;101651.00;5032490;28;20206;-70
2022/03/20 10:28:35;;;;;;;6.73;6.10;;;;;;;10.35;32.96;101659.47;5048329;28;20299;-70
2022/03/20 10:31:06;;;;;;;6.00;3.63;;;;;;;10.52;33.09;101652.75;5045120;28;20196;-70
2022/03/20 10:33:38;;;;;;;13.27;12.30;;;;;;;10.53;30.38;101651.03;5044116;28;20204;-70
2022/03/20 10:36:13;;;;;;;5.97;5.50;;;;;;;10.45;30.16;101642.44;5044025;28;20208;-71
2022/03/20 10:38:43;;;;;;;3.30;3.10;;;;;;;10.46;31.41;101614.25;5040455;28;20225;-70
2022/03/20 10:41:24;;;;;;;3.83;3.63;;;;;;;10.73;31.80;101640.88;5048760;28;20676;-70
2022/03/20 10:43:52;;;;;;;3.00;2.80;;;;;;;10.47;28.40;101644.16;5042292;28;20199;-70
2022/03/20 10:46:22;;;;;;;3.03;2.83;;;;;;;10.07;28.39;101639.59;5047521;28;20201;-70
2022/03/20 10:48:52;;;;;;;5.90;5.57;;;;;;;10.18;29.55;101632.00;5045595;28;20364;-70
2022/03/20 10:51:38;;;;;;;3.40;3.20;;;;;;;10.07;30.58;101628.47;5047053;28;20596;-70
2022/03/20 10:54:09;;;;;;;3.67;3.37;;;;;;;10.12;32.21;101627.66;5048657;28;20270;-71
2022/03/20 10:56:36;;;;;;;6.33;3.87;;;;;;;10.43;31.90;101624.50;5029041;28;20581;-70
2022/03/20 10:59:21;;;;;;;3.40;3.20;;;;;;;10.63;33.58;101616.88;5064006;28;20549;-70
2022/03/20 11:01:49;;;;;;;4.23;3.83;;;;;;;10.69;32.09;101614.38;5066234;28;20202;-70
2022/03/20 11:04:18;;;;;;;3.90;3.60;;;;;;;10.69;32.18;101616.06;5067043;28;20764;-70
2022/03/20 11:06:47;;;;;;;4.60;4.30;;;;;;;10.76;30.91;101620.38;5065433;28;20219;-70
2022/03/20 11:09:16;;;;;;;7.83;3.60;;;;;;;10.78;31.23;101616.09;5070355;28;20211;-70
2022/03/20 11:11:49;;;;;;;4.10;3.80;;;;;;;10.83;31.82;101614.41;5067838;28;20700;-70
2022/03/20 11:14:19;;;;;;;3.33;3.13;;;;;;;10.72;31.08;101605.81;5067019;28;20192;-70
2022/03/20 11:16:51;;;;;;;3.90;3.70;;;;;;;10.59;31.03;101604.03;5062181;28;20196;-70
2022/03/20 11:19:23;;;;;;;2.87;2.67;;;;;;;10.62;28.48;101610.06;5070738;28;20279;-70
2022/03/20 11:21:55;;;;;;;2.63;2.53;;;;;;;10.80;30.47;101609.25;5059002;28;20684;-70
2022/03/20 11:24:24;;;;;;;3.73;3.03;;;;;;;10.41;29.20;101577.44;5057224;28;20585;-70
2022/03/20 11:26:52;;;;;;;3.33;2.97;;;;;;;10.53;28.75;101600.59;5063513;28;20219;-69
2022/03/20 11:29:21;;;;;;;3.73;3.30;;;;;;;10.39;29.73;101607.38;5066143;28;20208;-70
2022/03/20 11:31:49;;;;;;;3.17;2.90;;;;;;;10.46;31.08;101596.28;5064027;28;20651;-69
2022/03/20 11:34:18;;;;;;;3.17;2.97;;;;;;;10.59;33.03;101586.09;5064741;28;20204;-68
2022/03/20 11:37:03;;;;;;;2.97;2.80;;;;;;;10.83;31.61;101588.75;5067900;28;20294;-68
2022/03/20 11:39:31;;;;;;;3.00;2.90;;;;;;;10.85;29.91;101587.06;5063964;28;20291;-68
2022/03/20 11:42:26;;;;;;;3.20;3.00;;;;;;;10.71;29.05;101583.56;5063555;28;20204;-68
2022/03/20 11:45:08;;;;;;;4.83;4.33;;;;;;;10.81;28.61;101575.06;5063776;28;20220;-69
2022/03/20 11:47:37;;;;;;;4.33;3.77;;;;;;;10.69;29.63;101569.91;5064050;28;20223;-69
2022/03/20 11:50:13;;;;;;;4.07;2.57;;;;;;;10.74;28.73;101570.75;5062782;28;20703;-69
2022/03/20 11:52:58;;;;;;;3.97;3.47;;;;;;;10.83;33.21;101557.94;5055273;28;20680;-70
2022/03/20 11:55:38;;;;;;;6.60;3.57;;;;;;;10.92;32.45;101555.44;5055279;28;20212;-70
2022/03/20 11:58:10;;;;;;;3.30;3.00;;;;;;;11.00;30.41;101558.88;5046999;28;20224;-69
2022/03/20 12:00:39;;;;;;;3.07;2.87;;;;;;;10.91;29.36;101556.28;5038340;28;20208;-70
2022/03/20 12:03:42;;;;;;;4.43;4.13;;;;;;;10.98;29.45;101558.03;5043643;28;20272;-69
2022/03/20 12:06:45;;;;;;;4.13;3.73;;;;;;;10.89;30.74;101542.56;5040643;28;20605;-69
2022/03/20 12:09:32;;;;;;;3.30;3.10;;;;;;;10.74;30.13;101540.81;5047133;28;21301;-69